Luga, Russia
Current Conditions -  °F | °C
As of 12:30 PM on Saturday 25 Oct 2014 (Local Time) from ULLI Reporting Station
Clear Clear  
Wind Chill: 25°   Ceiling: Unl
Heat Index: 34°   Visibility: 6mi
Dew Point: 19°   Wind: 11mph
Humidity: 56%   Direction: 180°S
Pressure: 30.42"   Gusts: NA
Location:  58.74°N, 29.84°E
Report Text: ULLI 250930Z 18005MPS CAVOK 01/M07 Q1030 60190045 10190060NOSIG
Loading
Personal Weather Stations






























Interactive Weather Map
Tropical Storm Tracking
New forecast layout! Learn more

10-Day Weather Forecast

Advertisements
Track Severe Weather on mobile